Time;durP1;ratioP1;P1;durP2;ratioP2;P2;SDS_P1;SDS_P2;PMS_P1;PMS_P2;Temp;Humidity;BMP_temperature;BMP_pressure;BME280_temperature;BME280_humidity;BME280_pressure;Samples;Min_cycle;Max_cycle;Signal;HPM_P1;HPM_P2
2021/12/20 00:00:52;;;;;;;;;;;;;;;;;;5076951;28;19937;-72
2021/12/20 00:03:21;;;;;;;;;;;;;;;;;;5073888;28;20350;-72
2021/12/20 00:05:52;;;;;;;;;;;;;;;;;;5061755;28;19935;-72
2021/12/20 00:08:19;;;;;;;;;;;;;;;;;;5072459;28;19937;-72
2021/12/20 00:10:48;;;;;;;;;;;;;;;;;;5084319;28;19933;-72
2021/12/20 00:13:19;;;;;;;;;;;;;;;;;;5084117;28;19942;-72
2021/12/20 00:15:49;;;;;;;;;;;;;;;;;;5083055;28;19930;-71
2021/12/20 00:18:18;;;;;;;;;;;;;;;;;;5067070;28;19925;-72
2021/12/20 00:21:19;;;;;;;;;;;;;;;;;;5079365;28;19924;-72
2021/12/20 00:23:48;;;;;;;;;;;;;;;;;;5065803;28;19924;-72
2021/12/20 00:26:17;;;;;;;;;;;;;;;;;;5082757;28;20530;-72
2021/12/20 00:28:45;;;;;;;;;;;;;;;;;;5083665;28;19931;-71
2021/12/20 00:31:16;;;;;;;;;;;;;;;;;;5085628;28;19931;-71
2021/12/20 00:33:47;;;;;;;;;;;;;;;;;;5074481;28;19924;-72
2021/12/20 00:36:22;;;;;;;;;;;;;;;;;;5067401;28;19950;-72
2021/12/20 00:41:59;;;;;;;;;;;;;;;;;;5074583;28;19928;-71
2021/12/20 00:44:29;;;;;;;;;;;;;;;;;;5089942;28;19932;-71
2021/12/20 00:46:58;;;;;;;;;;;;;;;;;;5088039;28;19924;-71
2021/12/20 00:49:28;;;;;;;;;;;;;;;;;;5088670;28;20249;-71
2021/12/20 00:52:15;;;;;;;;;;;;;;;;;;5087860;28;19935;-71
2021/12/20 00:54:45;;;;;;;;;;;;;;;;;;5070286;28;19932;-71
2021/12/20 00:57:13;;;;;;;;;;;;;;;;;;5087858;28;19924;-72
2021/12/20 00:59:43;;;;;;;;;;;;;;;;;;5071095;28;19987;-72
2021/12/20 01:02:11;;;;;;;;;;;;;;;;;;5084995;28;19928;-72
2021/12/20 01:04:40;;;;;;;;;;;;;;;;;;5085981;28;19992;-72
2021/12/20 01:07:10;;;;;;;;;;;;;;;;;;5091821;28;19981;-72
2021/12/20 01:09:43;;;;;;;;;;;;;;;;;;5088079;28;19935;-72
2021/12/20 01:12:19;;;;;;;;;;;;;;;;;;5089445;28;19943;-72
2021/12/20 01:14:58;;;;;;;;;;;;;;;;;;5092155;28;19932;-72
2021/12/20 01:17:41;;;;;;;;;;;;;;;;;;5087057;28;20575;-72
2021/12/20 01:20:09;;;;;;;;;;;;;;;;;;5091369;28;20352;-72
2021/12/20 01:22:40;;;;;;;;;;;;;;;;;;5094442;28;19932;-72
2021/12/20 01:25:14;;;;;;;;;;;;;;;;;;5096875;28;19928;-72
2021/12/20 01:27:57;;;;;;;;;;;;;;;;;;5074219;28;19924;-71
2021/12/20 01:30:26;;;;;;;;;;;;;;;;;;5088743;28;19928;-72
2021/12/20 01:32:57;;;;;;;;;;;;;;;;;;5070263;28;19931;-72
2021/12/20 01:35:28;;;;;;;;;;;;;;;;;;5095750;28;19935;-72
2021/12/20 01:37:58;;;;;;;;;;;;;;;;;;5088400;28;19935;-72
2021/12/20 01:40:29;;;;;;;;;;;;;;;;;;5086401;28;20063;-72
2021/12/20 01:43:00;;;;;;;;;;;;;;;;;;5088715;28;19935;-72
2021/12/20 01:45:31;;;;;;;;;;;;;;;;;;5082828;28;20345;-72
2021/12/20 01:48:10;;;;;;;;;;;;;;;;;;5085389;28;20079;-72
2021/12/20 01:51:14;;;;;;;;;;;;;;;;;;5084684;28;19928;-72
2021/12/20 01:53:41;;;;;;;;;;;;;;;;;;5083968;28;19967;-72
2021/12/20 01:56:12;;;;;;;;;;;;;;;;;;5094514;28;20481;-72
2021/12/20 01:58:46;;;;;;;;;;;;;;;;;;5069289;28;20457;-72
2021/12/20 02:03:47;;;;;;;;;;;;;;;;;;5083628;28;19924;-72
2021/12/20 02:06:31;;;;;;;;;;;;;;;;;;5097613;28;19928;-72
2021/12/20 02:09:05;;;;;;;;;;;;;;;;;;5083674;28;19993;-72
2021/12/20 02:11:37;;;;;;;;;;;;;;;;;;5085544;28;20288;-72
2021/12/20 02:14:04;;;;;;;;;;;;;;;;;;5078778;28;19965;-72
2021/12/20 02:16:34;;;;;;;;;;;;;;;;;;5080800;28;20445;-72
2021/12/20 02:19:05;;;;;;;;;;;;;;;;;;5087480;28;19928;-72
2021/12/20 02:21:35;;;;;;;;;;;;;;;;;;5089276;28;19935;-71
2021/12/20 02:24:11;;;;;;;;;;;;;;;;;;5081459;28;19933;-71
2021/12/20 02:26:40;;;;;;;;;;;;;;;;;;5086714;28;19932;-72
2021/12/20 02:29:15;;;;;;;;;;;;;;;;;;5083686;28;20302;-72
2021/12/20 02:37:29;;;;;;;;;;;;;;;;;;5086279;28;19939;-72
2021/12/20 02:39:58;;;;;;;;;;;;;;;;;;5082683;28;20362;-72
2021/12/20 02:42:33;;;;;;;;;;;;;;;;;;5084287;28;19939;-70
2021/12/20 02:45:14;;;;;;;;;;;;;;;;;;5083659;28;19932;-70
2021/12/20 02:47:46;;;;;;;;;;;;;;;;;;5081781;28;19924;-70
2021/12/20 02:50:15;;;;;;;;;;;;;;;;;;5084466;28;20369;-70
2021/12/20 02:52:45;;;;;;;;;;;;;;;;;;5073462;28;19935;-70
2021/12/20 02:55:20;;;;;;;;;;;;;;;;;;5084427;28;19931;-71
2021/12/20 02:57:48;;;;;;;;;;;;;;;;;;5082381;28;20555;-70
2021/12/20 03:00:19;;;;;;;;;;;;;;;;;;5074095;28;19944;-70
2021/12/20 03:02:49;;;;;;;;;;;;;;;;;;5066970;28;19934;-70
2021/12/20 03:05:29;;;;;;;;;;;;;;;;;;5059841;28;20434;-71
2021/12/20 03:08:00;;;;;;;;;;;;;;;;;;5057886;28;20346;-70
2021/12/20 03:10:31;;;;;;;;;;;;;;;;;;5064257;28;19928;-70
2021/12/20 03:13:02;;;;;;;;;;;;;;;;;;5067341;28;19961;-70
2021/12/20 03:15:37;;;;;;;;;;;;;;;;;;5063022;28;19924;-70
2021/12/20 03:18:05;;;;;;;;;;;;;;;;;;5070724;28;20369;-70
2021/12/20 03:20:38;;;;;;;;;;;;;;;;;;5086126;28;20338;-70
2021/12/20 03:23:09;;;;;;;;;;;;;;;;;;5081916;28;19981;-70
2021/12/20 03:25:38;;;;;;;;;;;;;;;;;;5086475;28;20273;-70
2021/12/20 03:28:10;;;;;;;;;;;;;;;;;;5088091;28;19924;-70
2021/12/20 03:30:40;;;;;;;;;;;;;;;;;;5085807;28;19985;-70
2021/12/20 03:33:11;;;;;;;;;;;;;;;;;;5075520;28;19928;-70
2021/12/20 03:35:42;;;;;;;;;;;;;;;;;;5087214;28;19932;-70
2021/12/20 03:38:12;;;;;;;;;;;;;;;;;;5084793;28;19924;-70
2021/12/20 03:40:43;;;;;;;;;;;;;;;;;;5079667;28;19933;-70
2021/12/20 03:43:31;;;;;;;;;;;;;;;;;;5086978;28;19931;-70
2021/12/20 03:46:02;;;;;;;;;;;;;;;;;;5079635;28;20686;-70
2021/12/20 03:48:32;;;;;;;;;;;;;;;;;;5080879;28;19939;-70
2021/12/20 03:51:01;;;;;;;;;;;;;;;;;;5093546;28;20525;-70
2021/12/20 03:53:30;;;;;;;;;;;;;;;;;;5079623;28;19924;-70
2021/12/20 03:56:01;;;;;;;;;;;;;;;;;;5082593;28;19928;-70
2021/12/20 03:58:32;;;;;;;;;;;;;;;;;;5084530;28;19935;-70
2021/12/20 04:01:04;;;;;;;;;;;;;;;;;;5085410;28;20535;-70
2021/12/20 04:03:34;;;;;;;;;;;;;;;;;;5084679;28;20525;-70
2021/12/20 04:06:05;;;;;;;;;;;;;;;;;;5073082;28;20475;-71
2021/12/20 04:08:33;;;;;;;;;;;;;;;;;;5084030;28;19924;-70
2021/12/20 04:11:03;;;;;;;;;;;;;;;;;;5082991;28;19928;-70
2021/12/20 04:13:34;;;;;;;;;;;;;;;;;;5085691;28;20063;-70
2021/12/20 04:16:03;;;;;;;;;;;;;;;;;;5082333;28;20534;-70
2021/12/20 04:18:34;;;;;;;;;;;;;;;;;;5072850;28;19924;-70
2021/12/20 04:21:07;;;;;;;;;;;;;;;;;;5093245;28;19928;-70
2021/12/20 04:23:35;;;;;;;;;;;;;;;;;;5087570;28;19924;-70
2021/12/20 04:26:05;;;;;;;;;;;;;;;;;;5086043;28;19924;-70
2021/12/20 04:28:35;;;;;;;;;;;;;;;;;;5083802;28;20273;-70
2021/12/20 04:31:05;;;;;;;;;;;;;;;;;;5090191;28;19945;-70
2021/12/20 04:33:41;;;;;;;;;;;;;;;;;;5086833;28;19928;-70
2021/12/20 04:36:10;;;;;;;;;;;;;;;;;;5085880;28;19932;-70
2021/12/20 04:38:40;;;;;;;;;;;;;;;;;;5096230;28;19988;-70
2021/12/20 04:41:11;;;;;;;;;;;;;;;;;;5087289;28;19947;-71
2021/12/20 04:43:39;;;;;;;;;;;;;;;;;;5091823;28;19989;-70
2021/12/20 04:46:10;;;;;;;;;;;;;;;;;;5091675;28;20372;-70
2021/12/20 04:48:40;;;;;;;;;;;;;;;;;;5088564;28;19981;-70
2021/12/20 04:51:10;;;;;;;;;;;;;;;;;;5090697;28;19936;-70
2021/12/20 04:53:40;;;;;;;;;;;;;;;;;;5085427;28;20358;-70
2021/12/20 04:56:10;;;;;;;;;;;;;;;;;;5071300;28;20345;-70
2021/12/20 04:58:39;;;;;;;;;;;;;;;;;;5071053;28;19924;-70
2021/12/20 05:01:11;;;;;;;;;;;;;;;;;;5089603;28;19924;-70
2021/12/20 05:03:43;;;;;;;;;;;;;;;;;;5080270;28;19931;-70
2021/12/20 05:06:13;;;;;;;;;;;;;;;;;;5091029;28;19932;-70
2021/12/20 05:08:49;;;;;;;;;;;;;;;;;;5088552;28;19931;-70
2021/12/20 05:11:20;;;;;;;;;;;;;;;;;;5090177;28;19928;-70
2021/12/20 05:13:50;;;;;;;;;;;;;;;;;;5082551;28;20311;-70
2021/12/20 05:16:20;;;;;;;;;;;;;;;;;;5085948;28;19960;-70
2021/12/20 05:18:50;;;;;;;;;;;;;;;;;;5087926;28;19932;-70
2021/12/20 05:21:21;;;;;;;;;;;;;;;;;;5086921;28;19924;-70
2021/12/20 05:23:55;;;;;;;;;;;;;;;;;;5084363;28;20285;-70
2021/12/20 05:26:22;;;;;;;;;;;;;;;;;;5086929;28;19928;-70
2021/12/20 05:28:55;;;;;;;;;;;;;;;;;;5074036;28;19931;-69
2021/12/20 05:31:27;;;;;;;;;;;;;;;;;;5085507;28;19974;-69
2021/12/20 05:33:56;;;;;;;;;;;;;;;;;;5080992;28;19928;-70
2021/12/20 05:36:26;;;;;;;;;;;;;;;;;;5088936;28;19961;-70
2021/12/20 05:38:57;;;;;;;;;;;;;;;;;;5090202;28;20295;-70
2021/12/20 05:41:30;;;;;;;;;;;;;;;;;;5085127;28;19928;-70
2021/12/20 05:44:02;;;;;;;;;;;;;;;;;;5081861;28;19928;-70
2021/12/20 05:46:32;;;;;;;;;;;;;;;;;;5087307;28;20408;-70
2021/12/20 05:49:04;;;;;;;;;;;;;;;;;;5094616;28;19928;-70
2021/12/20 05:51:45;;;;;;;;;;;;;;;;;;5082667;28;19924;-70
2021/12/20 05:54:16;;;;;;;;;;;;;;;;;;5086663;28;19989;-70
2021/12/20 05:56:48;;;;;;;;;;;;;;;;;;5085830;28;20388;-70
2021/12/20 05:59:21;;;;;;;;;;;;;;;;;;5090272;28;19924;-70
2021/12/20 06:01:52;;;;;;;;;;;;;;;;;;5083547;28;19928;-70
2021/12/20 06:04:23;;;;;;;;;;;;;;;;;;5086985;28;20281;-70
2021/12/20 06:06:52;;;;;;;;;;;;;;;;;;5086171;28;20100;-70
2021/12/20 06:09:23;;;;;;;;;;;;;;;;;;5090564;28;20276;-70
2021/12/20 06:11:59;;;;;;;;;;;;;;;;;;5099156;28;19931;-70
2021/12/20 06:14:34;;;;;;;;;;;;;;;;;;5088651;28;20350;-70
2021/12/20 06:17:01;;;;;;;;;;;;;;;;;;5083626;28;19932;-70
2021/12/20 06:19:30;;;;;;;;;;;;;;;;;;5083875;28;19923;-70
2021/12/20 06:22:01;;;;;;;;;;;;;;;;;;5086608;28;20639;-70
2021/12/20 06:24:31;;;;;;;;;;;;;;;;;;5082804;28;19984;-70
2021/12/20 06:26:59;;;;;;;;;;;;;;;;;;5085920;28;19924;-70
2021/12/20 06:29:29;;;;;;;;;;;;;;;;;;5079881;28;19942;-70
2021/12/20 06:32:00;;;;;;;;;;;;;;;;;;5083372;28;20649;-70
2021/12/20 06:34:32;;;;;;;;;;;;;;;;;;5067952;28;19932;-70
2021/12/20 06:37:05;;;;;;;;;;;;;;;;;;5081587;28;20022;-70
2021/12/20 06:39:35;;;;;;;;;;;;;;;;;;5084537;28;19932;-69
2021/12/20 06:42:06;;;;;;;;;;;;;;;;;;5077983;28;20283;-69
2021/12/20 06:44:35;;;;;;;;;;;;;;;;;;5068256;28;19924;-69
2021/12/20 06:47:04;;;;;;;;;;;;;;;;;;5085007;28;20453;-71
2021/12/20 06:49:34;;;;;;;;;;;;;;;;;;5080562;28;19928;-70
2021/12/20 06:52:03;;;;;;;;;;;;;;;;;;5079967;28;20153;-69
2021/12/20 06:54:33;;;;;;;;;;;;;;;;;;5084314;28;20218;-70
2021/12/20 06:57:03;;;;;;;;;;;;;;;;;;5084323;28;19935;-69
2021/12/20 06:59:36;;;;;;;;;;;;;;;;;;5085116;28;19931;-70
2021/12/20 07:02:07;;;;;;;;;;;;;;;;;;5072709;28;19925;-70
2021/12/20 07:04:37;;;;;;;;;;;;;;;;;;5084072;28;20023;-71
2021/12/20 07:07:08;;;;;;;;;;;;;;;;;;5085207;28;20502;-70
2021/12/20 07:09:39;;;;;;;;;;;;;;;;;;5080714;28;19924;-70
2021/12/20 07:12:09;;;;;;;;;;;;;;;;;;5082294;28;19928;-70
2021/12/20 07:14:42;;;;;;;;;;;;;;;;;;5087385;28;20484;-71
2021/12/20 07:17:14;;;;;;;;;;;;;;;;;;5080067;28;20251;-74
2021/12/20 07:19:42;;;;;;;;;;;;;;;;;;5085711;28;19942;-74
2021/12/20 07:22:13;;;;;;;;;;;;;;;;;;5086487;28;19931;-75
2021/12/20 07:24:42;;;;;;;;;;;;;;;;;;5067649;28;19931;-74
2021/12/20 07:27:12;;;;;;;;;;;;;;;;;;5085202;28;19932;-75
2021/12/20 07:29:43;;;;;;;;;;;;;;;;;;5083274;28;19978;-75
2021/12/20 07:32:16;;;;;;;;;;;;;;;;;;5090205;28;20034;-72
2021/12/20 07:34:47;;;;;;;;;;;;;;;;;;5084769;28;19932;-74
2021/12/20 07:37:16;;;;;;;;;;;;;;;;;;5082223;28;19928;-74
2021/12/20 07:39:47;;;;;;;;;;;;;;;;;;5074312;28;19949;-74
2021/12/20 07:42:17;;;;;;;;;;;;;;;;;;5090383;28;20390;-74
2021/12/20 07:44:46;;;;;;;;;;;;;;;;;;5086311;28;19961;-75
2021/12/20 07:47:14;;;;;;;;;;;;;;;;;;5095494;28;19928;-75
2021/12/20 07:49:45;;;;;;;;;;;;;;;;;;5060429;28;19939;-74
2021/12/20 07:52:14;;;;;;;;;;;;;;;;;;5089605;28;20015;-75
2021/12/20 07:54:43;;;;;;;;;;;;;;;;;;5084771;28;19932;-76
2021/12/20 07:57:14;;;;;;;;;;;;;;;;;;5084669;28;19932;-75
2021/12/20 07:59:46;;;;;;;;;;;;;;;;;;5076250;28;19933;-76
2021/12/20 08:02:15;;;;;;;;;;;;;;;;;;5068813;28;21246;-74
2021/12/20 08:04:50;;;;;;;;;;;;;;;;;;5073289;28;19943;-73
2021/12/20 08:07:18;;;;;;;;;;;;;;;;;;5086078;28;19943;-75
2021/12/20 08:09:50;;;;;;;;;;;;;;;;;;5082537;28;19930;-72
2021/12/20 08:12:23;;;;;;;;;;;;;;;;;;5085563;28;19988;-75
2021/12/20 08:14:52;;;;;;;;;;;;;;;;;;5081227;28;19985;-74
2021/12/20 08:17:19;;;;;;;;;;;;;;;;;;5083562;28;19927;-76
2021/12/20 08:19:48;;;;;;;;;;;;;;;;;;5080461;28;19932;-76
2021/12/20 08:22:15;;;;;;;;;;;;;;;;;;5082758;28;19932;-75
2021/12/20 08:24:50;;;;;;;;;;;;;;;;;;5074480;28;19928;-73
2021/12/20 08:27:19;;;;;;;;;;;;;;;;;;5074971;28;19980;-73
2021/12/20 08:29:47;;;;;;;;;;;;;;;;;;5081178;28;19931;-73
2021/12/20 08:32:18;;;;;;;;;;;;;;;;;;5098647;28;19931;-72
2021/12/20 08:34:51;;;;;;;;;;;;;;;;;;5084772;28;20563;-73
2021/12/20 08:37:21;;;;;;;;;;;;;;;;;;5059491;28;19925;-74
2021/12/20 08:39:49;;;;;;;;;;;;;;;;;;5075708;28;19935;-73
2021/12/20 08:42:19;;;;;;;;;;;;;;;;;;5092476;28;19924;-75
2021/12/20 08:44:50;;;;;;;;;;;;;;;;;;5086294;28;19935;-73
2021/12/20 08:47:52;;;;;;;;;;;;;;;;;;5070295;28;19963;-72
2021/12/20 08:50:24;;;;;;;;;;;;;;;;;;5079506;28;19928;-72
2021/12/20 08:52:58;;;;;;;;;;;;;;;;;;5085297;28;19932;-72
2021/12/20 08:55:39;;;;;;;;;;;;;;;;;;5084177;28;19928;-73
2021/12/20 08:58:13;;;;;;;;;;;;;;;;;;5094648;28;19936;-73
2021/12/20 09:00:44;;;;;;;;;;;;;;;;;;5084396;28;19931;-72
2021/12/20 09:03:15;;;;;;;;;;;;;;;;;;5087825;28;20366;-72
2021/12/20 09:05:46;;;;;;;;;;;;;;;;;;5081615;28;19973;-77
2021/12/20 09:08:19;;;;;;;;;;;;;;;;;;5088081;28;19935;-76
2021/12/20 09:11:12;;;;;;;;;;;;;;;;;;5085477;28;19924;-74
2021/12/20 09:13:57;;;;;;;;;;;;;;;;;;5086723;28;19924;-73
2021/12/20 09:16:39;;;;;;;;;;;;;;;;;;5079446;28;19924;-76
2021/12/20 09:19:25;;;;;;;;;;;;;;;;;;5069847;28;20270;-76
2021/12/20 09:21:54;;;;;;;;;;;;;;;;;;5083225;28;19988;-77
2021/12/20 09:24:23;;;;;;;;;;;;;;;;;;5089321;28;19935;-76
2021/12/20 09:26:56;;;;;;;;;;;;;;;;;;5086400;28;20262;-76
2021/12/20 09:29:24;;;;;;;;;;;;;;;;;;5082684;28;19932;-76
2021/12/20 09:31:55;;;;;;;;;;;;;;;;;;5086544;28;19924;-73
2021/12/20 09:34:28;;;;;;;;;;;;;;;;;;5085942;28;20404;-73
2021/12/20 09:36:56;;;;;;;;;;;;;;;;;;5086464;28;19924;-74
2021/12/20 09:39:26;;;;;;;;;;;;;;;;;;5086710;28;19928;-74
2021/12/20 09:42:00;;;;;;;;;;;;;;;;;;5083167;28;19928;-77
2021/12/20 09:44:30;;;;;;;;;;;;;;;;;;5088917;28;19939;-76
2021/12/20 09:47:01;;;;;;;;;;;;;;;;;;5086863;28;19931;-76
2021/12/20 09:49:33;;;;;;;;;;;;;;;;;;5087745;28;19924;-77
2021/12/20 09:52:22;;;;;;;;;;;;;;;;;;5077836;28;19960;-77
2021/12/20 09:54:52;;;;;;;;;;;;;;;;;;5087684;28;20328;-77
2021/12/20 09:57:25;;;;;;;;;;;;;;;;;;5079185;28;19932;-76
2021/12/20 09:59:57;;;;;;;;;;;;;;;;;;5076026;28;19940;-78
2021/12/20 10:02:27;;;;;;;;;;;;;;;;;;5050038;28;20372;-76
2021/12/20 10:04:57;;;;;;;;;;;;;;;;;;5061635;28;19981;-76
2021/12/20 10:07:29;;;;;;;;;;;;;;;;;;5068314;28;20015;-76
2021/12/20 10:10:02;;;;;;;;;;;;;;;;;;5063427;28;20444;-76
2021/12/20 10:12:36;;;;;;;;;;;;;;;;;;5065943;28;20357;-76
2021/12/20 10:15:04;;;;;;;;;;;;;;;;;;5067250;28;19947;-75
2021/12/20 10:17:38;;;;;;;;;;;;;;;;;;5062692;28;19924;-74
2021/12/20 10:20:08;;;;;;;;;;;;;;;;;;5064707;28;19925;-72
2021/12/20 10:22:38;;;;;;;;;;;;;;;;;;5064367;28;19940;-74
2021/12/20 10:25:12;;;;;;;;;;;;;;;;;;5066699;28;19932;-71
2021/12/20 10:27:41;;;;;;;;;;;;;;;;;;5067642;28;19950;-71
2021/12/20 10:30:10;;;;;;;;;;;;;;;;;;5065434;28;19925;-74
2021/12/20 10:32:39;;;;;;;;;;;;;;;;;;5075427;28;20261;-74
2021/12/20 10:35:11;;;;;;;;;;;;;;;;;;5051126;28;20301;-74
2021/12/20 10:37:39;;;;;;;;;;;;;;;;;;5055192;28;20000;-73
2021/12/20 10:40:08;;;;;;;;;;;;;;;;;;5064998;28;19932;-76
2021/12/20 10:42:37;;;;;;;;;;;;;;;;;;5067545;28;19928;-74
2021/12/20 10:45:12;;;;;;;;;;;;;;;;;;5067100;28;20332;-74
2021/12/20 10:47:41;;;;;;;;;;;;;;;;;;5064203;28;19924;-74
2021/12/20 10:50:25;;;;;;;;;;;;;;;;;;5068561;28;19963;-73
2021/12/20 10:52:56;;;;;;;;;;;;;;;;;;5063880;28;19985;-74
2021/12/20 10:55:24;;;;;;;;;;;;;;;;;;5067424;28;19936;-74
2021/12/20 10:57:55;;;;;;;;;;;;;;;;;;5063614;28;19936;-74
2021/12/20 11:00:23;;;;;;;;;;;;;;;;;;5073664;28;19939;-77
2021/12/20 11:03:14;;;;;;;;;;;;;;;;;;5088102;28;19924;-77
2021/12/20 11:05:58;;;;;;;;;;;;;;;;;;5082111;28;19929;-73
2021/12/20 11:11:27;;;;;;;;;;;;;;;;;;5085387;28;19928;-73
2021/12/20 11:13:54;;;;;;;;;;;;;;;;;;5084090;28;19932;-74
2021/12/20 11:16:28;;;;;;;;;;;;;;;;;;5084144;28;19963;-73
2021/12/20 11:18:58;;;;;;;;;;;;;;;;;;5085557;28;19924;-73
2021/12/20 11:21:29;;;;;;;;;;;;;;;;;;5086864;28;19931;-74
2021/12/20 11:23:57;;;;;;;;;;;;;;;;;;5083717;28;19928;-74
2021/12/20 11:26:29;;;;;;;;;;;;;;;;;;5082526;28;19932;-73
2021/12/20 11:28:59;;;;;;;;;;;;;;;;;;5064404;28;19925;-72
2021/12/20 11:31:32;;;;;;;;;;;;;;;;;;5068481;28;19970;-73
2021/12/20 11:34:04;;;;;;;;;;;;;;;;;;5078528;28;19943;-73
2021/12/20 11:36:41;;;;;;;;;;;;;;;;;;5086740;28;19935;-73
2021/12/20 11:39:14;;;;;;;;;;;;;;;;;;5071248;28;19932;-74
2021/12/20 11:41:43;;;;;;;;;;;;;;;;;;5072214;28;19931;-75
2021/12/20 11:44:14;;;;;;;;;;;;;;;;;;5084703;28;20336;-74
2021/12/20 11:46:45;;;;;;;;;;;;;;;;;;5086000;28;19932;-73
2021/12/20 11:49:28;;;;;;;;;;;;;;;;;;5085903;28;20004;-74
2021/12/20 11:52:01;;;;;;;;;;;;;;;;;;5077225;28;20091;-72
2021/12/20 11:54:31;;;;;;;;;;;;;;;;;;5083220;28;19984;-73
2021/12/20 11:57:01;;;;;;;;;;;;;;;;;;5083778;28;19980;-75
2021/12/20 11:59:34;;;;;;;;;;;;;;;;;;5068182;28;19924;-74
2021/12/20 12:02:15;;;;;;;;;;;;;;;;;;5084332;28;19979;-73
2021/12/20 12:04:46;;;;;;;;;;;;;;;;;;5082751;28;19932;-72
2021/12/20 12:07:16;;;;;;;;;;;;;;;;;;5078347;28;19935;-73
2021/12/20 12:09:44;;;;;;;;;;;;;;;;;;5077962;28;19943;-73
2021/12/20 12:12:18;;;;;;;;;;;;;;;;;;5070684;28;19932;-75
2021/12/20 12:15:08;;;;;;;;;;;;;;;;;;5081094;28;19928;-75
2021/12/20 12:17:47;;;;;;;;;;;;;;;;;;5083074;28;19932;-75
2021/12/20 12:20:27;;;;;;;;;;;;;;;;;;5082597;28;19936;-76
2021/12/20 12:22:58;;;;;;;;;;;;;;;;;;5085938;28;19924;-73
2021/12/20 12:25:27;;;;;;;;;;;;;;;;;;5089555;28;19924;-72
2021/12/20 12:27:58;;;;;;;;;;;;;;;;;;5087712;28;19936;-73
2021/12/20 12:30:27;;;;;;;;;;;;;;;;;;5093032;28;20016;-74
2021/12/20 12:33:02;;;;;;;;;;;;;;;;;;5093181;28;19927;-72
2021/12/20 12:35:36;;;;;;;;;;;;;;;;;;5097501;28;19924;-75
2021/12/20 12:38:03;;;;;;;;;;;;;;;;;;5090448;28;20014;-75
2021/12/20 12:40:34;;;;;;;;;;;;;;;;;;5094773;28;20297;-75
2021/12/20 12:43:02;;;;;;;;;;;;;;;;;;5097484;28;20018;-76
2021/12/20 12:45:31;;;;;;;;;;;;;;;;;;5096377;28;20317;-74
2021/12/20 12:48:02;;;;;;;;;;;;;;;;;;5085683;28;19925;-73
2021/12/20 12:50:33;;;;;;;;;;;;;;;;;;5091241;28;19931;-76
2021/12/20 12:53:04;;;;;;;;;;;;;;;;;;5085075;28;19935;-74
2021/12/20 12:55:36;;;;;;;;;;;;;;;;;;5091012;28;19924;-74
2021/12/20 12:58:07;;;;;;;;;;;;;;;;;;5087739;28;19928;-75
2021/12/20 13:00:40;;;;;;;;;;;;;;;;;;5090094;28;19932;-74
2021/12/20 13:03:23;;;;;;;;;;;;;;;;;;5087151;28;19931;-74
2021/12/20 13:05:52;;;;;;;;;;;;;;;;;;5084240;28;20239;-75
2021/12/20 13:08:27;;;;;;;;;;;;;;;;;;5073068;28;20338;-74
2021/12/20 13:10:58;;;;;;;;;;;;;;;;;;5089899;28;20056;-72
2021/12/20 13:13:41;;;;;;;;;;;;;;;;;;5085966;28;20336;-72
2021/12/20 13:16:22;;;;;;;;;;;;;;;;;;5083852;28;20001;-74
2021/12/20 13:19:09;;;;;;;;;;;;;;;;;;5089701;28;19998;-73
2021/12/20 13:21:54;;;;;;;;;;;;;;;;;;5087861;28;19935;-73
2021/12/20 13:24:23;;;;;;;;;;;;;;;;;;5088958;28;19930;-75
2021/12/20 13:27:00;;;;;;;;;;;;;;;;;;5088488;28;19924;-71
2021/12/20 13:29:29;;;;;;;;;;;;;;;;;;5081536;28;19924;-68
2021/12/20 13:31:58;;;;;;;;;;;;;;;;;;5085330;28;19938;-68
2021/12/20 13:34:27;;;;;;;;;;;;;;;;;;5088281;28;19928;-67
2021/12/20 13:36:57;;;;;;;;;;;;;;;;;;5084635;28;19924;-67
2021/12/20 13:39:28;;;;;;;;;;;;;;;;;;5087702;28;19928;-68
2021/12/20 13:41:58;;;;;;;;;;;;;;;;;;5081427;28;20590;-68
2021/12/20 13:44:30;;;;;;;;;;;;;;;;;;5088325;28;19923;-68
2021/12/20 13:47:05;;;;;;;;;;;;;;;;;;5068317;28;20350;-68
2021/12/20 13:49:33;;;;;;;;;;;;;;;;;;5069904;28;19936;-68
2021/12/20 13:52:05;;;;;;;;;;;;;;;;;;5081666;28;19928;-68
2021/12/20 13:54:35;;;;;;;;;;;;;;;;;;5093577;28;19946;-68
2021/12/20 13:57:11;;;;;;;;;;;;;;;;;;5067313;28;19924;-68
2021/12/20 13:59:42;;;;;;;;;;;;;;;;;;5084340;28;19932;-68
2021/12/20 14:02:14;;;;;;;;;;;;;;;;;;5081175;28;19970;-71
2021/12/20 14:04:43;;;;;;;;;;;;;;;;;;5085634;28;19924;-70
2021/12/20 14:07:15;;;;;;;;;;;;;;;;;;5087101;28;19923;-68
2021/12/20 14:09:59;;;;;;;;;;;;;;;;;;5080500;28;20019;-67
2021/12/20 14:12:30;;;;;;;;;;;;;;;;;;5090187;28;19924;-67
2021/12/20 14:15:02;;;;;;;;;;;;;;;;;;5084303;28;19940;-67
2021/12/20 14:17:33;;;;;;;;;;;;;;;;;;5081719;28;20016;-68
2021/12/20 14:20:04;;;;;;;;;;;;;;;;;;5065892;28;19931;-69
2021/12/20 14:22:31;;;;;;;;;;;;;;;;;;5066094;28;19935;-69
2021/12/20 14:25:03;;;;;;;;;;;;;;;;;;5088223;28;19947;-74
2021/12/20 14:27:37;;;;;;;;;;;;;;;;;;5059249;28;20407;-73
2021/12/20 14:30:05;;;;;;;;;;;;;;;;;;5073300;28;19931;-73
2021/12/20 14:32:36;;;;;;;;;;;;;;;;;;5087250;28;19924;-73
2021/12/20 14:35:04;;;;;;;;;;;;;;;;;;5083544;28;19928;-74
2021/12/20 14:37:36;;;;;;;;;;;;;;;;;;5061908;28;19938;-73
2021/12/20 14:40:04;;;;;;;;;;;;;;;;;;5079530;28;19932;-72
2021/12/20 14:42:35;;;;;;;;;;;;;;;;;;5085694;28;19976;-73
2021/12/20 14:45:07;;;;;;;;;;;;;;;;;;5084796;28;19930;-73
2021/12/20 14:47:41;;;;;;;;;;;;;;;;;;5089934;28;19928;-73
2021/12/20 14:50:13;;;;;;;;;;;;;;;;;;5082617;28;19950;-73
2021/12/20 14:52:45;;;;;;;;;;;;;;;;;;5081256;28;19940;-72
2021/12/20 14:55:19;;;;;;;;;;;;;;;;;;5081911;28;19924;-73
2021/12/20 14:57:49;;;;;;;;;;;;;;;;;;5085065;28;19924;-72
2021/12/20 15:00:24;;;;;;;;;;;;;;;;;;5081987;28;19924;-72
2021/12/20 15:02:55;;;;;;;;;;;;;;;;;;5058455;28;20374;-73
2021/12/20 15:05:24;;;;;;;;;;;;;;;;;;5058393;28;19924;-74
2021/12/20 15:08:00;;;;;;;;;;;;;;;;;;5073214;28;19955;-75
2021/12/20 15:10:28;;;;;;;;;;;;;;;;;;5043602;28;20266;-75
2021/12/20 15:12:59;;;;;;;;;;;;;;;;;;5056134;28;19924;-75
2021/12/20 15:15:33;;;;;;;;;;;;;;;;;;5062073;28;19928;-72
2021/12/20 15:18:05;;;;;;;;;;;;;;;;;;5062116;28;19924;-73
2021/12/20 15:20:35;;;;;;;;;;;;;;;;;;5066069;28;19924;-73
2021/12/20 15:23:04;;;;;;;;;;;;;;;;;;5064274;28;19928;-74
2021/12/20 15:25:32;;;;;;;;;;;;;;;;;;5062058;28;19932;-73
2021/12/20 15:28:02;;;;;;;;;;;;;;;;;;5067316;28;20390;-75
2021/12/20 15:30:31;;;;;;;;;;;;;;;;;;5062344;28;19935;-75
2021/12/20 15:33:14;;;;;;;;;;;;;;;;;;5060162;28;20033;-72
2021/12/20 15:35:45;;;;;;;;;;;;;;;;;;5067777;28;19924;-71
2021/12/20 15:38:14;;;;;;;;;;;;;;;;;;5064990;28;20476;-71
2021/12/20 15:40:57;;;;;;;;;;;;;;;;;;5064181;28;19928;-70
2021/12/20 15:43:42;;;;;;;;;;;;;;;;;;5072499;28;19935;-70
2021/12/20 15:46:11;;;;;;;;;;;;;;;;;;5062417;28;19925;-70
2021/12/20 15:48:42;;;;;;;;;;;;;;;;;;5067461;28;19973;-70
2021/12/20 15:51:13;;;;;;;;;;;;;;;;;;5063822;28;19924;-70
2021/12/20 15:53:41;;;;;;;;;;;;;;;;;;5064741;28;20412;-70
2021/12/20 15:56:14;;;;;;;;;;;;;;;;;;5064903;28;19924;-70
2021/12/20 15:58:45;;;;;;;;;;;;;;;;;;5066243;28;19936;-70
2021/12/20 16:01:14;;;;;;;;;;;;;;;;;;5074327;28;19924;-70
2021/12/20 16:03:42;;;;;;;;;;;;;;;;;;5082587;28;19935;-71
2021/12/20 16:06:11;;;;;;;;;;;;;;;;;;5091657;28;19950;-71
2021/12/20 16:08:41;;;;;;;;;;;;;;;;;;5092818;28;19935;-70
2021/12/20 16:11:11;;;;;;;;;;;;;;;;;;5080743;28;19974;-70
2021/12/20 16:13:43;;;;;;;;;;;;;;;;;;5087277;28;19932;-70
2021/12/20 16:16:14;;;;;;;;;;;;;;;;;;5086545;28;20349;-70
2021/12/20 16:18:44;;;;;;;;;;;;;;;;;;5089321;28;19927;-70
2021/12/20 16:21:15;;;;;;;;;;;;;;;;;;5090439;28;19932;-70
2021/12/20 16:23:50;;;;;;;;;;;;;;;;;;5086047;28;20332;-70
2021/12/20 16:26:21;;;;;;;;;;;;;;;;;;5082391;28;19924;-70
2021/12/20 16:28:52;;;;;;;;;;;;;;;;;;5075911;28;19934;-70
2021/12/20 16:31:24;;;;;;;;;;;;;;;;;;5083004;28;20222;-70
2021/12/20 16:33:55;;;;;;;;;;;;;;;;;;5080632;28;20437;-70
2021/12/20 16:36:26;;;;;;;;;;;;;;;;;;5079020;28;19942;-70
2021/12/20 16:38:53;;;;;;;;;;;;;;;;;;5087877;28;19928;-70
2021/12/20 16:41:24;;;;;;;;;;;;;;;;;;5086114;28;19939;-70
2021/12/20 16:44:02;;;;;;;;;;;;;;;;;;5082929;28;19992;-71
2021/12/20 16:46:35;;;;;;;;;;;;;;;;;;5089040;28;19951;-70
2021/12/20 16:49:13;;;;;;;;;;;;;;;;;;5085833;28;19988;-70
2021/12/20 16:52:08;;;;;;;;;;;;;;;;;;5085294;28;19972;-70
2021/12/20 16:54:39;;;;;;;;;;;;;;;;;;5087803;28;19928;-70
2021/12/20 16:57:20;;;;;;;;;;;;;;;;;;5086351;28;20063;-70
2021/12/20 16:59:49;;;;;;;;;;;;;;;;;;5084448;28;19924;-70
2021/12/20 17:02:36;;;;;;;;;;;;;;;;;;5086802;28;19932;-70
2021/12/20 17:05:08;;;;;;;;;;;;;;;;;;5083573;28;19932;-70
2021/12/20 17:07:37;;;;;;;;;;;;;;;;;;5069619;28;19923;-70
2021/12/20 17:10:07;;;;;;;;;;;;;;;;;;5083008;28;19925;-70
2021/12/20 17:12:39;;;;;;;;;;;;;;;;;;5087097;28;19924;-70
2021/12/20 17:15:09;;;;;;;;;;;;;;;;;;5089263;28;20373;-70
2021/12/20 17:17:39;;;;;;;;;;;;;;;;;;5079987;28;19924;-70
2021/12/20 17:20:10;;;;;;;;;;;;;;;;;;5079660;28;20339;-70
2021/12/20 17:22:40;;;;;;;;;;;;;;;;;;5086819;28;20417;-70
2021/12/20 17:25:12;;;;;;;;;;;;;;;;;;5084537;28;19928;-70
2021/12/20 17:27:42;;;;;;;;;;;;;;;;;;5078718;28;20337;-70
2021/12/20 17:30:11;;;;;;;;;;;;;;;;;;5081641;28;20641;-69
2021/12/20 17:32:41;;;;;;;;;;;;;;;;;;5085250;28;19936;-70